Snow/Ice From: 16-12-2017 16:00 Until: 17-12-2017 16:00 warning for: Snow/Ice Level: Yellow info button

Although rather usual in this region, locally or potentially dangerous phenomena are expected. (such as local winds, summer thunderstorms, rising streams or high waves) Be aware and pay attention to the latest weather updates, especially if you carry out activities exposed to weather or close to a stream or shoreline. 


Meteo18 Weather Cam more information Meteo18 Weather Cam


Thunder radar more information blitzortung!


warning for Snow/Ice more information rain snow radar


Visit our other weather sites:

Template documentation
and downloads

And another site



Weather Underground History page Text

Daily Summary for September 16, 2017 Units:  English    Metric   Both
« Previous Day
Next Day »
Daily Weekly Monthly Yearly Custom
  High: Low: Average:
Temperature: 57.7 °F 43.2 °F 49.6 °F
Dew Point: 50.9 °F 41.9 °F 46.6 °F
Humidity: 96 % 73 % 90 %
Wind Speed: 11 mph 0 mph 0.7 mph
Wind Gust: 23 mph - -
Wind:- - SSW
Pressure: 30 in 29.9 in -
Precipitation: 0.44 in    
Historical Graphs
 
 
Tabular Data for September 16, 2017
Time Temperature Dew Point Pressure Wind Wind Speed Wind Gust Humidity Rainfall Rate (Hourly)
00:02 48.7 °F 45.7 °F 30 in Calm   2 mph 89 % 0 in
00:07 48.7 °F 45.7 °F 30 in Calm   2 mph 89 % 0 in
00:12 48.4 °F 45.3 °F 30 in Calm   1 mph 89 % 0 in
00:17 48.2 °F 45.3 °F 30 in Calm   1 mph 90 % 0 in
00:22 47.8 °F 45 °F 30 in WNW 2 mph 2 mph 90 % 0 in
00:32 47.8 °F 45.3 °F 30 in Calm   2 mph 91 % 0 in
00:42 47.7 °F 45 °F 30 in Calm   2 mph 90 % 0 in
00:52 47.7 °F 45.1 °F 30 in Calm   1 mph 91 % 0 in
00:57 47.7 °F 45.1 °F 30 in Calm   1 mph 91 % 0 in
01:02 47.7 °F 45.1 °F 30 in Calm   1 mph 91 % 0 in
01:07 47.7 °F 45.1 °F 30 in Calm     91 % 0 in
01:12 47.7 °F 45.1 °F 30 in Calm     91 % 0 in
01:17 47.7 °F 45.1 °F 30 in Calm   1 mph 91 % 0 in
01:22 47.7 °F 45.1 °F 30 in Calm   1 mph 91 % 0 in
01:27 47.7 °F 45.1 °F 29.9 in Calm   1 mph 91 % 0 in
01:32 47.7 °F 45.1 °F 29.9 in Calm   1 mph 91 % 0 in
01:37 47.7 °F 45.1 °F 29.9 in Calm   1 mph 91 % 0 in
01:42 47.7 °F 45.1 °F 29.9 in Calm     91 % 0 in
01:47 47.7 °F 45.1 °F 29.9 in Calm     91 % 0 in
01:52 47.7 °F 45.1 °F 29.9 in Calm     91 % 0 in
01:57 47.7 °F 45.1 °F 29.9 in Calm   1 mph 91 % 0 in
02:02 47.5 °F 45 °F 29.9 in Calm   1 mph 91 % 0 in
02:07 47.5 °F 45 °F 29.9 in Calm   1 mph 91 % 0 in
02:12 47.1 °F 44.6 °F 29.9 in Calm   1 mph 91 % 0 in
02:17 46.9 °F 44.8 °F 29.9 in Calm   1 mph 92 % 0 in
02:22 46.8 °F 44.6 °F 29.9 in Calm   1 mph 92 % 0 in
02:32 46.6 °F 44.4 °F 29.9 in Calm     92 % 0 in
02:37 46.2 °F 44.1 °F 29.9 in Calm     92 % 0 in
02:42 46.2 °F 44.2 °F 29.9 in Calm   1 mph 93 % 0 in
02:47 46 °F 44.1 °F 29.9 in Calm   1 mph 93 % 0 in
02:52 46.4 °F 44.4 °F 29.9 in Calm   1 mph 93 % 0 in
02:57 46.2 °F 44.2 °F 29.9 in Calm   1 mph 93 % 0 in
03:02 46 °F 44.1 °F 29.9 in Calm   1 mph 93 % 0 in
03:07 45.9 °F 43.9 °F 29.9 in Calm   1 mph 93 % 0 in
03:12 45.7 °F 43.7 °F 29.9 in Calm   1 mph 93 % 0 in
03:17 45.3 °F 43.3 °F 29.9 in Calm   1 mph 93 % 0 in
03:22 45.7 °F 44.1 °F 29.9 in Calm   1 mph 94 % 0 in
03:27 45.7 °F 44.1 °F 29.9 in Calm     94 % 0 in
03:32 45.5 °F 43.9 °F 29.9 in Calm     94 % 0 in
03:37 45.7 °F 44.1 °F 29.9 in Calm     94 % 0 in
03:42 45.3 °F 43.7 °F 29.9 in Calm     94 % 0 in
03:47 45.1 °F 43.5 °F 29.9 in North 1 mph 2 mph 94 % 0 in
03:52 45 °F 43.3 °F 29.9 in North 2 mph 3 mph 94 % 0 in
03:57 44.8 °F 43.2 °F 29.9 in Calm   3 mph 94 % 0 in
04:02 44.4 °F 42.8 °F 29.9 in Calm   3 mph 94 % 0 in
04:07 44.2 °F 42.6 °F 29.9 in Calm   3 mph 94 % 0 in
04:12 44.4 °F 42.8 °F 29.9 in Calm   1 mph 94 % 0 in
04:17 44.4 °F 42.8 °F 29.9 in Calm   1 mph 94 % 0 in
04:22 44.1 °F 42.4 °F 29.9 in Calm   1 mph 94 % 0 in
04:27 44.1 °F 42.8 °F 29.9 in Calm   1 mph 95 % 0 in
04:32 44.1 °F 42.4 °F 29.9 in Calm   1 mph 94 % 0 in
04:37 43.5 °F 41.9 °F 29.9 in Calm     94 % 0 in
04:42 43.9 °F 42.6 °F 29.9 in Calm     95 % 0 in
04:47 43.7 °F 42.4 °F 29.9 in Calm     95 % 0 in
04:52 43.9 °F 42.6 °F 29.9 in Calm     95 % 0 in
05:02 44.1 °F 42.8 °F 29.9 in Calm     95 % 0 in
05:07 43.5 °F 41.9 °F 29.9 in Calm   1 mph 94 % 0 in
05:12 43.3 °F 42.1 °F 29.9 in Calm   1 mph 95 % 0 in
05:17 43.2 °F 41.9 °F 29.9 in Calm   1 mph 95 % 0 in
05:22 43.2 °F 41.9 °F 29.9 in Calm   1 mph 95 % 0 in
05:32 43.2 °F 41.9 °F 29.9 in Calm     95 % 0 in
05:37 43.2 °F 41.9 °F 29.9 in Calm     95 % 0 in
05:42 43.2 °F 41.9 °F 29.9 in Calm   1 mph 95 % 0 in
05:47 43.2 °F 41.9 °F 29.9 in Calm   1 mph 95 % 0 in
05:52 43.3 °F 42.1 °F 29.9 in Calm   1 mph 95 % 0 in
05:57 43.3 °F 42.1 °F 29.9 in Calm     95 % 0 in
06:02 43.5 °F 42.3 °F 29.9 in Calm   1 mph 95 % 0 in
06:12 43.5 °F 42.3 °F 29.9 in Calm   1 mph 95 % 0 in
06:17 43.3 °F 42.1 °F 29.9 in Calm     95 % 0 in
06:22 43.3 °F 42.1 °F 29.9 in Calm     95 % 0 in
06:32 43.3 °F 42.1 °F 29.9 in Calm     95 % 0 in
06:42 43.2 °F 41.9 °F 29.9 in Calm     95 % 0 in
06:47 43.2 °F 41.9 °F 29.9 in Calm     95 % 0 in
06:52 43.2 °F 41.9 °F 29.9 in Calm     95 % 0 in
07:02 43.5 °F 42.4 °F 29.9 in Calm     96 % 0 in
07:12 43.5 °F 42.4 °F 29.9 in Calm   1 mph 96 % 0 in
07:17 43.7 °F 42.6 °F 29.9 in Calm   1 mph 96 % 0 in
07:22 43.9 °F 42.8 °F 29.9 in Calm   1 mph 96 % 0 in
07:32 43.9 °F 42.8 °F 29.9 in Calm   1 mph 96 % 0 in
07:42 44.1 °F 43 °F 29.9 in Calm   1 mph 96 % 0 in
07:47 44.2 °F 43.2 °F 29.9 in Calm   1 mph 96 % 0 in
08:02 45 °F 43.9 °F 29.9 in South 1 mph 2 mph 96 % 0 in
08:12 45 °F 43.9 °F 29.9 in South 1 mph 3 mph 96 % 0 in
08:17 45.3 °F 44.2 °F 29.9 in SSE 1 mph 3 mph 96 % 0 in
08:22 45.7 °F 44.6 °F 29.9 in Calm   2 mph 96 % 0 in
08:27 46 °F 45 °F 29.9 in Calm   2 mph 96 % 0 in
08:32 46.6 °F 45.5 °F 29.9 in SSE 1 mph 2 mph 96 % 0 in
08:42 47.3 °F 46.2 °F 29.9 in SSE 1 mph 3 mph 96 % 0 in
08:47 47.7 °F 46.6 °F 29.9 in Calm   4 mph 96 % 0 in
08:52 47.8 °F 46.4 °F 29.9 in Calm   4 mph 95 % 0 in
08:57 48 °F 46.6 °F 29.9 in SSW 1 mph 4 mph 95 % 0 in
09:02 48.2 °F 46.8 °F 29.9 in South 1 mph 4 mph 95 % 0 in
09:12 48.6 °F 47.1 °F 29.9 in Calm   4 mph 95 % 0 in
09:17 48.7 °F 47.1 °F 29.9 in SW 2 mph 4 mph 94 % 0 in
09:22 48.9 °F 47.3 °F 29.9 in SW 2 mph 4 mph 94 % 0 in
09:32 49.5 °F 47.5 °F 29.9 in Calm   5 mph 93 % 0 in
09:37 50.2 °F 48 °F 29.9 in SW 1 mph 5 mph 92 % 0 in
09:42 50.5 °F 48 °F 29.9 in SW 4 mph 5 mph 91 % 0 in
09:47 50.5 °F 47.5 °F 29.9 in SW 3 mph 5 mph 89 % 0 in
09:52 50.7 °F 47.7 °F 29.9 in SSW 4 mph 5 mph 89 % 0 in
09:57 50.5 °F 47.5 °F 29.9 in WSW 4 mph 5 mph 89 % 0 in
10:02 50.5 °F 47.5 °F 29.9 in SW 5 mph 5 mph 89 % 0 in
10:12 50.5 °F 47.5 °F 29.9 in SW 3 mph 6 mph 89 % 0 in
10:17 50.7 °F 47.7 °F 29.9 in SW 1 mph 7 mph 89 % 0 in
10:22 50.7 °F 47.3 °F 29.9 in SSW 3 mph 7 mph 88 % 0 in
10:32 51.1 °F 47.7 °F 29.9 in SW 3 mph 7 mph 88 % 0 in
10:42 51.3 °F 47.5 °F 29.9 in SW 5 mph 6 mph 87 % 0 in
10:47 51.4 °F 47.7 °F 29.9 in SW 3 mph 7 mph 87 % 0 in
10:52 51.8 °F 48 °F 29.9 in SSW 3 mph 7 mph 87 % 0 in
10:57 52.2 °F 48 °F 29.9 in South 3 mph 7 mph 86 % 0 in
11:02 52.2 °F 48 °F 29.9 in SSW 2 mph 7 mph 86 % 0 in
11:12 52.3 °F 47.7 °F 29.9 in SSW 1 mph 9 mph 84 % 0 in
11:22 52.9 °F 47.8 °F 29.9 in SSW 6 mph 8 mph 83 % 0 in
11:32 53.2 °F 47.8 °F 29.9 in SW 3 mph 8 mph 82 % 0 in
11:42 54 °F 48.2 °F 29.9 in SSW 3 mph 8 mph 81 % 0 in
11:47 54 °F 48.2 °F 29.9 in SSW 2 mph 8 mph 81 % 0 in
11:52 54.1 °F 47.8 °F 29.9 in SW 6 mph 8 mph 79 % 0 in
11:57 54.3 °F 48.2 °F 29.9 in SSW 1 mph 8 mph 80 % 0 in
12:02 54.5 °F 48.2 °F 29.9 in SW 1 mph 9 mph 79 % 0 in
12:12 54.7 °F 47.7 °F 29.9 in SW 4 mph 9 mph 77 % 0 in
12:17 55 °F 48 °F 29.9 in West 1 mph 8 mph 77 % 0 in
12:22 55.6 °F 48.6 °F 29.9 in South 6 mph 8 mph 77 % 0 in
12:32 55.4 °F 47.7 °F 29.9 in SW 3 mph 10 mph 75 % 0 in
12:42 55.6 °F 48.2 °F 29.9 in SW 3 mph 10 mph 76 % 0 in
12:47 55.6 °F 47.8 °F 29.9 in WSW 3 mph 9 mph 75 % 0 in
12:52 55.8 °F 48.4 °F 29.9 in WNW 3 mph 9 mph 76 % 0 in
12:57 55.9 °F 48.6 °F 29.9 in West 3 mph 7 mph 76 % 0 in
13:02 55.9 °F 48.2 °F 29.9 in Calm   7 mph 75 % 0 in
13:12 55.8 °F 48 °F 29.9 in West 2 mph 7 mph 75 % 0 in
13:17 54.1 °F 46.8 °F 29.9 in WNW 11 mph 11 mph 76 % 0 in
13:22 51.1 °F 45.5 °F 29.9 in West 11 mph 23 mph 81 % 0.01 in
13:32 48.9 °F 45.1 °F 29.9 in West 2 mph 23 mph 87 % 0.02 in
13:42 48.9 °F 45.5 °F 29.9 in Calm   14 mph 88 % 0.06 in
13:52 49.3 °F 45.9 °F 29.9 in Calm   6 mph 88 % 0.07 in
13:57 49.3 °F 46.2 °F 29.9 in West 1 mph 3 mph 89 % 0.08 in
14:02 49.5 °F 46.6 °F 29.9 in Calm   3 mph 90 % 0.08 in
14:12 50 °F 46.9 °F 29.9 in Calm   1 mph 89 % 0.09 in
14:17 50.4 °F 47.3 °F 29.9 in Calm   1 mph 89 % 0.08 in
14:22 51.1 °F 47.7 °F 29.9 in Calm     88 % 0.06 in
14:27 51.4 °F 48 °F 29.9 in NNW 1 mph 3 mph 88 % 0.04 in
14:32 52 °F 47.8 °F 29.9 in Calm   3 mph 86 % 0.03 in
14:37 52.5 °F 48.4 °F 29.9 in Calm   3 mph 86 % 0.02 in
14:42 53.1 °F 48.7 °F 29.9 in Calm   1 mph 85 % 0.02 in
14:47 53.2 °F 48.6 °F 29.9 in Calm   1 mph 84 % 0.02 in
14:52 53.2 °F 47.5 °F 29.9 in Calm   1 mph 81 % 0.01 in
14:57 53.4 °F 48 °F 29.9 in Calm   1 mph 82 % 0.01 in
15:02 53.8 °F 48.4 °F 29.9 in Calm   1 mph 82 % 0 in
15:07 54 °F 48.6 °F 29.9 in Calm   1 mph 82 % 0 in
15:12 54 °F 48 °F 29.9 in Calm   2 mph 80 % 0 in
15:17 54.3 °F 48.2 °F 29.9 in Calm   2 mph 80 % 0 in
15:22 55.2 °F 49.5 °F 29.9 in Calm   2 mph 81 % 0 in
15:32 55.9 °F 49.1 °F 29.9 in ESE 1 mph 4 mph 78 % 0 in
15:37 56.7 °F 50.2 °F 29.9 in Calm   4 mph 79 % 0 in
15:42 57.4 °F 50.5 °F 29.9 in SSE 2 mph 4 mph 78 % 0 in
15:47 57.2 °F 48.9 °F 29.9 in SW 3 mph 3 mph 74 % 0 in
15:52 56.7 °F 49.5 °F 29.9 in WSW 1 mph 6 mph 77 % 0 in
15:57 56.7 °F 49.8 °F 29.9 in East 1 mph 6 mph 78 % 0 in
16:02 56.7 °F 50.5 °F 29.9 in SSW 4 mph 5 mph 80 % 0 in
16:12 56.3 °F 48.2 °F 29.9 in Calm   7 mph 74 % 0 in
16:17 56.1 °F 49.3 °F 29.9 in Calm   7 mph 78 % 0 in
16:22 56.3 °F 49.5 °F 29.9 in SW 1 mph 7 mph 78 % 0 in
16:27 56.1 °F 49.6 °F 29.9 in Calm   5 mph 79 % 0 in
16:32 56.1 °F 49.3 °F 29.9 in SE 2 mph 5 mph 78 % 0 in
16:37 56.1 °F 48.9 °F 29.9 in Calm   5 mph 77 % 0 in
16:42 56.7 °F 49.8 °F 29.9 in Calm   3 mph 78 % 0 in
16:47 57.7 °F 50.9 °F 29.9 in SSW 3 mph 3 mph 78 % 0 in
16:52 57.7 °F 49.1 °F 29.9 in South 1 mph 4 mph 73 % 0 in
16:57 56.8 °F 48.9 °F 29.9 in NE 1 mph 4 mph 75 % 0 in
17:02 56.3 °F 49.1 °F 29.9 in NE 1 mph 4 mph 77 % 0 in
17:07 55.8 °F 49.6 °F 29.9 in NW 1 mph 4 mph 80 % 0 in
17:12 54.3 °F 49.3 °F 29.9 in WNW 3 mph 8 mph 83 % 0.02 in
17:17 52.9 °F 48.7 °F 29.9 in NW 3 mph 10 mph 86 % 0.12 in
17:22 52.2 °F 48 °F 29.9 in NE 1 mph 10 mph 86 % 0.24 in
17:27 52 °F 48.6 °F 29.9 in Calm   10 mph 88 % 0.31 in
17:32 52 °F 48.9 °F 29.9 in West 1 mph 4 mph 89 % 0.31 in
17:37 51.8 °F 48.9 °F 29.9 in Calm   3 mph 90 % 0.31 in
17:42 51.8 °F 49.3 °F 29.9 in ENE 2 mph 4 mph 91 % 0.31 in
17:47 51.8 °F 49.3 °F 29.9 in NE 1 mph 4 mph 91 % 0.31 in
17:52 52 °F 49.6 °F 29.9 in Calm   4 mph 92 % 0.31 in
17:57 52.2 °F 49.8 °F 29.9 in NE 2 mph 4 mph 92 % 0.31 in
18:02 52.2 °F 49.8 °F 29.9 in Calm   3 mph 92 % 0.31 in
18:07 52 °F 49.5 °F 29.9 in Calm   3 mph 91 % 0.33 in
18:12 52 °F 49.6 °F 29.9 in Calm   3 mph 92 % 0.31 in
18:17 51.8 °F 48.9 °F 29.9 in Calm   3 mph 90 % 0.31 in
18:22 52 °F 49.1 °F 29.9 in Calm   1 mph 90 % 0.17 in
18:32 52.2 °F 49.3 °F 29.9 in Calm   1 mph 90 % 0.05 in
18:42 53.2 °F 50 °F 29.9 in Calm     89 % 0.04 in
18:47 54.1 °F 50 °F 29.9 in Calm     86 % 0.04 in
18:52 54.1 °F 50 °F 29.9 in Calm   1 mph 86 % 0.04 in
18:57 54 °F 50.2 °F 29.9 in Calm   1 mph 87 % 0.04 in
19:02 53.8 °F 50.4 °F 29.9 in Calm   1 mph 88 % 0.03 in
19:07 53.6 °F 50.2 °F 29.9 in Calm   1 mph 88 % 0.02 in
19:12 53.8 °F 50.4 °F 29.9 in Calm   2 mph 88 % 0.01 in
19:17 53.8 °F 50.5 °F 29.9 in Calm   2 mph 89 % 0.01 in
19:22 53.4 °F 50 °F 29.9 in Calm   2 mph 88 % 0 in
19:27 53.2 °F 50 °F 29.9 in Calm   1 mph 89 % 0 in
19:32 53.1 °F 49.6 °F 29.9 in Calm   1 mph 88 % 0 in
19:37 52.9 °F 49.6 °F 29.9 in Calm   1 mph 89 % 0 in
19:42 52.5 °F 49.5 °F 29.9 in Calm   1 mph 89 % 0 in
19:47 52.3 °F 49.3 °F 29.9 in Calm   1 mph 89 % 0 in
19:52 52 °F 48.9 °F 29.9 in Calm     89 % 0 in
19:57 51.6 °F 48.7 °F 29.9 in Calm     90 % 0 in
20:02 51.4 °F 48.6 °F 29.9 in Calm     90 % 0 in
20:07 51.3 °F 48.7 °F 29.9 in Calm     91 % 0 in
20:12 50.9 °F 48.4 °F 29.9 in Calm     91 % 0 in
20:17 50.7 °F 48.2 °F 29.9 in Calm     91 % 0 in
20:22 50.5 °F 48.4 °F 29.9 in Calm     92 % 0 in
20:27 50.4 °F 48.2 °F 29.9 in Calm     92 % 0 in
20:32 50 °F 47.8 °F 29.9 in Calm     92 % 0 in
20:37 49.6 °F 47.5 °F 29.9 in Calm     92 % 0 in
20:42 49.5 °F 47.5 °F 29.9 in Calm     93 % 0 in
20:47 49.5 °F 47.5 °F 29.9 in Calm     93 % 0 in
20:52 49.5 °F 47.8 °F 29.9 in Calm     94 % 0 in
20:57 49.3 °F 47.7 °F 29.9 in Calm     94 % 0 in
21:02 49.3 °F 47.7 °F 29.9 in Calm     94 % 0 in
21:07 49.1 °F 47.5 °F 29.9 in Calm     94 % 0 in
21:12 49.1 °F 47.5 °F 29.9 in Calm     94 % 0 in
21:17 48.9 °F 47.3 °F 29.9 in Calm     94 % 0 in
21:22 48.9 °F 47.5 °F 29.9 in Calm   1 mph 95 % 0 in
21:27 49.1 °F 47.7 °F 29.9 in Calm   1 mph 95 % 0 in
21:32 48.9 °F 47.3 °F 29.9 in Calm   1 mph 94 % 0 in
21:42 48.7 °F 47.3 °F 29.9 in Calm     95 % 0 in
21:52 48.6 °F 47.1 °F 29.9 in Calm   1 mph 95 % 0 in
21:57 48.6 °F 47.1 °F 29.9 in Calm   1 mph 95 % 0 in
22:02 48.4 °F 46.9 °F 29.9 in Calm   1 mph 95 % 0 in
22:07 48.4 °F 46.9 °F 29.9 in Calm     95 % 0 in
22:12 48.2 °F 46.8 °F 29.9 in Calm     95 % 0 in
22:17 48 °F 46.6 °F 29.9 in Calm     95 % 0 in
22:22 48 °F 46.6 °F 29.9 in Calm     95 % 0 in
22:32 48.2 °F 46.8 °F 29.9 in Calm   1 mph 95 % 0 in
22:37 48 °F 46.6 °F 29.9 in Calm   1 mph 95 % 0 in
22:42 47.8 °F 46.4 °F 29.9 in Calm   1 mph 95 % 0 in
22:47 47.8 °F 46.4 °F 29.9 in Calm   1 mph 95 % 0 in
22:52 48 °F 46.6 °F 29.9 in Calm   1 mph 95 % 0 in
23:02 47.8 °F 46.4 °F 29.9 in Calm   2 mph 95 % 0 in
23:07 47.8 °F 46.4 °F 29.9 in Calm   2 mph 95 % 0 in
23:12 47.8 °F 46.4 °F 29.9 in Calm   1 mph 95 % 0 in
23:22 47.8 °F 46.8 °F 29.9 in Calm   2 mph 96 % 0 in
23:27 48 °F 46.9 °F 29.9 in Calm   2 mph 96 % 0 in
23:32 48 °F 46.9 °F 29.9 in Calm   2 mph 96 % 0 in
23:37 48.4 °F 47.3 °F 29.9 in SW 1 mph 1 mph 96 % 0 in
23:42 48.6 °F 47.5 °F 29.9 in SW 2 mph 2 mph 96 % 0 in
23:47 48.7 °F 47.3 °F 29.9 in Calm   3 mph 95 % 0 in
23:52 48.7 °F 47.3 °F 29.9 in Calm   3 mph 95 % 0 in
23:57 48.9 °F 47.5 °F 29.9 in Calm   3 mph 95 % 0 in
Meteo18
Compliments of Weather Underground - 4 mb

Script developed by  Jim McMurry - jmcmurry@mwt.net Adapted for the template by  Wim van der Kuil - Leuven-Template.eu

You find our weather info also at:

European Weather Network

Weather Underground

Equipment we use:

Weather-station
Davis Vue

Weather-program
Meteohub

Weather-server
Raspberry PI 2 B+

Provider
1 and 1

Davis Vue

Meteohub

Raspberry PI 2 B+

1 and 1